KPWK/PWK METAR and TAF weather

Enter ICAO airport designator
Station Type Date Time Source
KPWK METAR 2021/09/25 12:52 UTC NOAA

KPWK 251252Z 24004KT 10SM CLR 12/09 A3002 RMK AO2 SLP163 T01170094


Station Type Date Time Source
KPWK Decoded METAR 2021/09/25 12:52 UTC NOAA

CHICAGO EXECUTIVE AIRPORT, IL, United States (KPWK) 42-07N 087-54W 203M
Sep 25, 2021 - 08:52 AM EDT / 2021.09.25 1252 UTC
Wind: from the WSW (240 degrees) at 5 MPH (4 KT):0
Visibility: 10 mile(s):0
Sky conditions: clear
Temperature: 53.1 F (11.7 C)
Dew Point: 48.9 F (9.4 C)
Relative Humidity: 85%
Pressure (altimeter): 30.02 in. Hg (1016 hPa)
ob: KPWK 251252Z 24004KT 10SM CLR 12/09 A3002 RMK AO2 SLP163 T01170094
cycle: 13

Station Type Date Time Source
KPWK TAF UTC NOAA

Error!

Example: see airport list